sensor_id;sensor_type;location;lat;lon;timestamp;pressure;altitude;pressure_sealevel;temperature;humidity
41306;BME280;27051;50.376;19.152;2023-11-18T00:01:41;98166.23;;;5.58;67.57
41306;BME280;27051;50.376;19.152;2023-11-18T00:04:50;98165.55;;;5.60;67.80
41306;BME280;27051;50.376;19.152;2023-11-18T00:07:25;98166.80;;;5.65;67.63
41306;BME280;27051;50.376;19.152;2023-11-18T00:13:11;98175.33;;;5.70;67.74
41306;BME280;27051;50.376;19.152;2023-11-18T00:15:44;98174.83;;;5.70;67.73
41306;BME280;27051;50.376;19.152;2023-11-18T00:21:09;98178.27;;;5.82;67.76
41306;BME280;27051;50.376;19.152;2023-11-18T00:23:39;98180.70;;;5.85;67.65
41306;BME280;27051;50.376;19.152;2023-11-18T00:26:10;98182.65;;;5.88;67.55
41306;BME280;27051;50.376;19.152;2023-11-18T00:28:37;98181.02;;;5.87;67.61
41306;BME280;27051;50.376;19.152;2023-11-18T00:31:28;98181.17;;;5.87;67.40
41306;BME280;27051;50.376;19.152;2023-11-18T00:34:14;98180.09;;;5.84;67.37
41306;BME280;27051;50.376;19.152;2023-11-18T00:36:41;98178.42;;;5.83;67.51
41306;BME280;27051;50.376;19.152;2023-11-18T00:39:08;98182.07;;;5.84;67.59
41306;BME280;27051;50.376;19.152;2023-11-18T00:41:55;98181.14;;;5.75;67.59
41306;BME280;27051;50.376;19.152;2023-11-18T00:47:05;98185.84;;;5.56;67.61
41306;BME280;27051;50.376;19.152;2023-11-18T00:50:00;98190.58;;;5.52;67.73
41306;BME280;27051;50.376;19.152;2023-11-18T00:55:08;98186.52;;;5.39;67.86
41306;BME280;27051;50.376;19.152;2023-11-18T01:00:54;98185.96;;;5.29;67.83
41306;BME280;27051;50.376;19.152;2023-11-18T01:03:29;98183.54;;;5.27;68.07
41306;BME280;27051;50.376;19.152;2023-11-18T01:05:59;98179.40;;;5.24;68.06
41306;BME280;27051;50.376;19.152;2023-11-18T01:08:35;98179.03;;;5.21;68.19
41306;BME280;27051;50.376;19.152;2023-11-18T01:11:03;98182.14;;;5.28;68.41
41306;BME280;27051;50.376;19.152;2023-11-18T01:13:52;98182.56;;;5.35;68.40
41306;BME280;27051;50.376;19.152;2023-11-18T01:16:21;98187.13;;;5.37;68.28
41306;BME280;27051;50.376;19.152;2023-11-18T01:22:35;98182.13;;;5.44;68.22
41306;BME280;27051;50.376;19.152;2023-11-18T01:25:01;98177.58;;;5.43;68.39
41306;BME280;27051;50.376;19.152;2023-11-18T01:27:49;98172.49;;;5.53;68.40
41306;BME280;27051;50.376;19.152;2023-11-18T01:30:16;98173.27;;;5.56;68.39
41306;BME280;27051;50.376;19.152;2023-11-18T01:32:43;98172.83;;;5.52;68.17
41306;BME280;27051;50.376;19.152;2023-11-18T01:35:41;98172.58;;;5.47;68.34
41306;BME280;27051;50.376;19.152;2023-11-18T01:38:10;98169.02;;;5.53;68.41
41306;BME280;27051;50.376;19.152;2023-11-18T01:40:57;98170.11;;;5.57;68.38
41306;BME280;27051;50.376;19.152;2023-11-18T01:43:43;98166.29;;;5.58;68.43
41306;BME280;27051;50.376;19.152;2023-11-18T01:46:53;98161.98;;;5.51;68.25
41306;BME280;27051;50.376;19.152;2023-11-18T01:52:29;98165.15;;;5.34;68.55
41306;BME280;27051;50.376;19.152;2023-11-18T01:55:03;98162.11;;;5.34;68.62
41306;BME280;27051;50.376;19.152;2023-11-18T01:57:42;98162.60;;;5.45;68.82
41306;BME280;27051;50.376;19.152;2023-11-18T02:00:20;98163.27;;;5.61;68.75
41306;BME280;27051;50.376;19.152;2023-11-18T02:05:26;98162.69;;;5.63;68.64
41306;BME280;27051;50.376;19.152;2023-11-18T02:08:04;98168.30;;;5.72;68.57
41306;BME280;27051;50.376;19.152;2023-11-18T02:10:35;98172.13;;;5.74;68.54
41306;BME280;27051;50.376;19.152;2023-11-18T02:13:15;98174.57;;;5.77;68.53
41306;BME280;27051;50.376;19.152;2023-11-18T02:15:46;98170.58;;;5.83;68.51
41306;BME280;27051;50.376;19.152;2023-11-18T02:18:14;98171.95;;;5.81;68.36
41306;BME280;27051;50.376;19.152;2023-11-18T02:21:04;98173.55;;;5.81;68.45
41306;BME280;27051;50.376;19.152;2023-11-18T02:24:13;98178.80;;;5.84;68.49
41306;BME280;27051;50.376;19.152;2023-11-18T02:26:41;98183.39;;;5.84;68.39
41306;BME280;27051;50.376;19.152;2023-11-18T02:29:08;98182.42;;;5.80;68.29
41306;BME280;27051;50.376;19.152;2023-11-18T02:31:35;98186.58;;;5.80;68.32
41306;BME280;27051;50.376;19.152;2023-11-18T02:34:26;98184.95;;;5.73;68.23
41306;BME280;27051;50.376;19.152;2023-11-18T02:37:23;98188.96;;;5.68;68.27
41306;BME280;27051;50.376;19.152;2023-11-18T02:40:05;98189.53;;;5.62;68.25
41306;BME280;27051;50.376;19.152;2023-11-18T02:45:26;98189.30;;;5.52;68.41
41306;BME280;27051;50.376;19.152;2023-11-18T02:48:19;98191.48;;;5.55;68.54
41306;BME280;27051;50.376;19.152;2023-11-18T02:50:44;98192.64;;;5.49;68.47
41306;BME280;27051;50.376;19.152;2023-11-18T02:53:21;98195.93;;;5.54;68.76
41306;BME280;27051;50.376;19.152;2023-11-18T02:59:29;98197.05;;;5.56;68.60
41306;BME280;27051;50.376;19.152;2023-11-18T03:05:03;98203.00;;;5.55;68.35
41306;BME280;27051;50.376;19.152;2023-11-18T03:07:51;98206.79;;;5.47;68.43
41306;BME280;27051;50.376;19.152;2023-11-18T03:10:21;98213.36;;;5.44;68.59
41306;BME280;27051;50.376;19.152;2023-11-18T03:13:01;98212.77;;;5.45;68.68
41306;BME280;27051;50.376;19.152;2023-11-18T03:15:28;98214.77;;;5.48;68.66
41306;BME280;27051;50.376;19.152;2023-11-18T03:17:56;98213.94;;;5.52;68.64
41306;BME280;27051;50.376;19.152;2023-11-18T03:20:47;98212.73;;;5.49;68.45
41306;BME280;27051;50.376;19.152;2023-11-18T03:23:20;98212.02;;;5.45;68.59
41306;BME280;27051;50.376;19.152;2023-11-18T03:25:47;98211.90;;;5.46;68.68
41306;BME280;27051;50.376;19.152;2023-11-18T03:28:15;98216.56;;;5.49;68.60
41306;BME280;27051;50.376;19.152;2023-11-18T03:30:45;98220.34;;;5.45;68.42
41306;BME280;27051;50.376;19.152;2023-11-18T03:33:12;98225.30;;;5.50;68.88
41306;BME280;27051;50.376;19.152;2023-11-18T03:35:48;98220.80;;;5.57;68.75
41306;BME280;27051;50.376;19.152;2023-11-18T03:38:37;98223.17;;;5.59;68.69
41306;BME280;27051;50.376;19.152;2023-11-18T03:41:03;98220.17;;;5.61;68.65
41306;BME280;27051;50.376;19.152;2023-11-18T03:44:02;98215.59;;;5.61;68.47
41306;BME280;27051;50.376;19.152;2023-11-18T03:46:52;98218.61;;;5.59;68.46
41306;BME280;27051;50.376;19.152;2023-11-18T03:50:00;98228.44;;;5.52;68.39
41306;BME280;27051;50.376;19.152;2023-11-18T03:52:46;98231.25;;;5.48;68.36
41306;BME280;27051;50.376;19.152;2023-11-18T03:55:21;98234.84;;;5.43;68.24
41306;BME280;27051;50.376;19.152;2023-11-18T03:58:00;98237.23;;;5.40;68.41
41306;BME280;27051;50.376;19.152;2023-11-18T04:00:27;98241.75;;;5.41;68.52
41306;BME280;27051;50.376;19.152;2023-11-18T04:12:06;98247.67;;;5.57;68.52
41306;BME280;27051;50.376;19.152;2023-11-18T04:17:32;98253.77;;;5.66;68.74
41306;BME280;27051;50.376;19.152;2023-11-18T04:20:05;98253.59;;;5.74;68.69
41306;BME280;27051;50.376;19.152;2023-11-18T04:22:32;98250.91;;;5.78;68.44
41306;BME280;27051;50.376;19.152;2023-11-18T04:25:31;98250.63;;;5.77;68.35
41306;BME280;27051;50.376;19.152;2023-11-18T04:28:05;98245.46;;;5.72;68.18
41306;BME280;27051;50.376;19.152;2023-11-18T04:30:33;98247.65;;;5.65;68.39
41306;BME280;27051;50.376;19.152;2023-11-18T04:33:03;98245.61;;;5.66;68.38
41306;BME280;27051;50.376;19.152;2023-11-18T04:38:36;98240.59;;;5.70;68.41
41306;BME280;27051;50.376;19.152;2023-11-18T04:41:07;98241.23;;;5.80;68.54
41306;BME280;27051;50.376;19.152;2023-11-18T04:43:34;98239.52;;;5.90;68.46
41306;BME280;27051;50.376;19.152;2023-11-18T04:46:24;98238.54;;;5.95;68.31
41306;BME280;27051;50.376;19.152;2023-11-18T04:48:51;98240.98;;;6.00;68.30
41306;BME280;27051;50.376;19.152;2023-11-18T04:51:21;98239.40;;;5.99;68.14
41306;BME280;27051;50.376;19.152;2023-11-18T04:53:51;98238.34;;;5.89;68.00
41306;BME280;27051;50.376;19.152;2023-11-18T04:56:28;98239.77;;;5.83;68.15
41306;BME280;27051;50.376;19.152;2023-11-18T04:58:55;98241.45;;;5.85;68.25
41306;BME280;27051;50.376;19.152;2023-11-18T05:04:40;98244.99;;;5.92;68.40
41306;BME280;27051;50.376;19.152;2023-11-18T05:07:07;98245.89;;;5.95;68.24
41306;BME280;27051;50.376;19.152;2023-11-18T05:09:34;98243.96;;;5.93;68.30
41306;BME280;27051;50.376;19.152;2023-11-18T05:12:01;98242.99;;;5.93;68.12
41306;BME280;27051;50.376;19.152;2023-11-18T05:15:00;98247.07;;;5.87;68.16
41306;BME280;27051;50.376;19.152;2023-11-18T05:17:48;98246.95;;;5.86;68.27
41306;BME280;27051;50.376;19.152;2023-11-18T05:23:03;98255.00;;;5.72;68.32
41306;BME280;27051;50.376;19.152;2023-11-18T05:25:51;98256.04;;;5.67;68.22
41306;BME280;27051;50.376;19.152;2023-11-18T05:30:55;98261.86;;;5.66;68.52
41306;BME280;27051;50.376;19.152;2023-11-18T05:33:43;98259.59;;;5.65;68.55
41306;BME280;27051;50.376;19.152;2023-11-18T05:39:19;98264.63;;;5.53;68.66
41306;BME280;27051;50.376;19.152;2023-11-18T05:41:58;98269.94;;;5.56;68.71
41306;BME280;27051;50.376;19.152;2023-11-18T05:44:36;98273.80;;;5.57;68.72
41306;BME280;27051;50.376;19.152;2023-11-18T05:47:06;98281.98;;;5.62;68.81
41306;BME280;27051;50.376;19.152;2023-11-18T05:52:42;98292.52;;;5.67;68.28
41306;BME280;27051;50.376;19.152;2023-11-18T05:55:51;98299.77;;;5.57;68.55
41306;BME280;27051;50.376;19.152;2023-11-18T05:58:19;98305.42;;;5.64;68.80
41306;BME280;27051;50.376;19.152;2023-11-18T06:03:49;98309.77;;;5.63;68.49
41306;BME280;27051;50.376;19.152;2023-11-18T06:06:19;98312.51;;;5.64;68.30
41306;BME280;27051;50.376;19.152;2023-11-18T06:08:46;98317.81;;;5.66;68.39
41306;BME280;27051;50.376;19.152;2023-11-18T06:11:15;98318.48;;;5.67;68.15
41306;BME280;27051;50.376;19.152;2023-11-18T06:13:50;98326.23;;;5.52;67.82
41306;BME280;27051;50.376;19.152;2023-11-18T06:16:50;98328.00;;;5.36;67.68
41306;BME280;27051;50.376;19.152;2023-11-18T06:19:15;98334.88;;;5.31;68.08
41306;BME280;27051;50.376;19.152;2023-11-18T06:24:30;98335.29;;;5.37;68.20
41306;BME280;27051;50.376;19.152;2023-11-18T06:26:57;98340.22;;;5.38;68.05
41306;BME280;27051;50.376;19.152;2023-11-18T06:29:25;98339.44;;;5.27;67.67
41306;BME280;27051;50.376;19.152;2023-11-18T06:31:52;98344.70;;;5.19;67.84
41306;BME280;27051;50.376;19.152;2023-11-18T06:34:21;98349.92;;;5.14;68.08
41306;BME280;27051;50.376;19.152;2023-11-18T06:37:54;98350.13;;;5.20;68.21
41306;BME280;27051;50.376;19.152;2023-11-18T06:39:56;98347.59;;;5.27;68.31
41306;BME280;27051;50.376;19.152;2023-11-18T06:42:23;98352.00;;;5.28;68.16
41306;BME280;27051;50.376;19.152;2023-11-18T06:44:59;98358.38;;;5.26;68.16
41306;BME280;27051;50.376;19.152;2023-11-18T06:47:30;98364.17;;;5.29;68.17
41306;BME280;27051;50.376;19.152;2023-11-18T06:50:24;98367.95;;;5.24;68.13
41306;BME280;27051;50.376;19.152;2023-11-18T06:53:12;98377.27;;;5.25;68.10
41306;BME280;27051;50.376;19.152;2023-11-18T06:55:50;98383.86;;;5.19;68.19
41306;BME280;27051;50.376;19.152;2023-11-18T06:58:28;98385.04;;;5.20;68.28
41306;BME280;27051;50.376;19.152;2023-11-18T07:03:46;98384.08;;;5.23;68.15
41306;BME280;27051;50.376;19.152;2023-11-18T07:06:17;98389.91;;;5.26;68.46
41306;BME280;27051;50.376;19.152;2023-11-18T07:09:06;98389.81;;;5.34;68.13
41306;BME280;27051;50.376;19.152;2023-11-18T07:11:39;98392.30;;;5.35;68.23
41306;BME280;27051;50.376;19.152;2023-11-18T07:14:07;98388.98;;;5.41;68.27
41306;BME280;27051;50.376;19.152;2023-11-18T07:16:40;98389.13;;;5.58;68.34
41306;BME280;27051;50.376;19.152;2023-11-18T07:19:11;98388.86;;;5.68;68.07
41306;BME280;27051;50.376;19.152;2023-11-18T07:21:58;98394.20;;;5.80;68.39
41306;BME280;27051;50.376;19.152;2023-11-18T07:24:25;98389.77;;;5.83;67.83
41306;BME280;27051;50.376;19.152;2023-11-18T07:27:14;98390.19;;;5.81;68.01
41306;BME280;27051;50.376;19.152;2023-11-18T07:29:49;98388.30;;;5.84;67.94
41306;BME280;27051;50.376;19.152;2023-11-18T07:32:54;98384.80;;;5.78;67.68
41306;BME280;27051;50.376;19.152;2023-11-18T07:35:43;98389.06;;;5.66;67.64
41306;BME280;27051;50.376;19.152;2023-11-18T07:38:30;98389.23;;;5.60;67.70
41306;BME280;27051;50.376;19.152;2023-11-18T07:41:17;98390.16;;;5.62;67.75
41306;BME280;27051;50.376;19.152;2023-11-18T07:44:15;98395.05;;;5.61;67.80
41306;BME280;27051;50.376;19.152;2023-11-18T07:47:22;98389.81;;;5.61;67.79
41306;BME280;27051;50.376;19.152;2023-11-18T07:52:40;98398.38;;;5.52;67.63
41306;BME280;27051;50.376;19.152;2023-11-18T07:55:10;98403.61;;;5.51;67.79
41306;BME280;27051;50.376;19.152;2023-11-18T07:57:37;98406.52;;;5.53;67.83
41306;BME280;27051;50.376;19.152;2023-11-18T08:00:26;98405.50;;;5.58;67.78
41306;BME280;27051;50.376;19.152;2023-11-18T08:03:00;98406.11;;;5.54;67.78
41306;BME280;27051;50.376;19.152;2023-11-18T08:08:24;98412.53;;;5.48;67.62
41306;BME280;27051;50.376;19.152;2023-11-18T08:11:01;98416.48;;;5.44;67.74
41306;BME280;27051;50.376;19.152;2023-11-18T08:16:08;98420.34;;;5.47;67.86
41306;BME280;27051;50.376;19.152;2023-11-18T08:18:38;98430.05;;;5.46;67.76
41306;BME280;27051;50.376;19.152;2023-11-18T08:21:08;98430.59;;;5.40;67.75
41306;BME280;27051;50.376;19.152;2023-11-18T08:23:35;98434.92;;;5.37;67.63
41306;BME280;27051;50.376;19.152;2023-11-18T08:26:05;98439.19;;;5.31;67.62
41306;BME280;27051;50.376;19.152;2023-11-18T08:28:52;98443.45;;;5.28;67.67
41306;BME280;27051;50.376;19.152;2023-11-18T08:31:20;98443.80;;;5.26;67.61
41306;BME280;27051;50.376;19.152;2023-11-18T08:33:47;98445.24;;;5.23;67.71
41306;BME280;27051;50.376;19.152;2023-11-18T08:36:17;98445.77;;;5.20;67.57
41306;BME280;27051;50.376;19.152;2023-11-18T08:38:48;98451.88;;;5.22;67.93
41306;BME280;27051;50.376;19.152;2023-11-18T08:41:15;98460.33;;;5.26;68.00
41306;BME280;27051;50.376;19.152;2023-11-18T08:43:45;98464.39;;;5.29;67.93
41306;BME280;27051;50.376;19.152;2023-11-18T08:46:12;98467.80;;;5.22;67.62
41306;BME280;27051;50.376;19.152;2023-11-18T08:48:39;98473.89;;;5.07;67.39
41306;BME280;27051;50.376;19.152;2023-11-18T08:51:09;98480.50;;;4.94;67.52
41306;BME280;27051;50.376;19.152;2023-11-18T08:53:39;98480.27;;;4.98;67.71
41306;BME280;27051;50.376;19.152;2023-11-18T08:56:09;98481.27;;;5.09;67.81
41306;BME280;27051;50.376;19.152;2023-11-18T08:58:40;98481.98;;;5.16;67.78
41306;BME280;27051;50.376;19.152;2023-11-18T09:01:16;98480.45;;;5.25;67.84
41306;BME280;27051;50.376;19.152;2023-11-18T09:03:44;98488.07;;;5.31;67.55
41306;BME280;27051;50.376;19.152;2023-11-18T09:06:11;98497.27;;;5.29;67.48
41306;BME280;27051;50.376;19.152;2023-11-18T09:08:38;98501.86;;;5.32;67.52
41306;BME280;27051;50.376;19.152;2023-11-18T09:11:07;98508.02;;;5.42;67.85
41306;BME280;27051;50.376;19.152;2023-11-18T09:13:44;98505.88;;;5.51;67.47
41306;BME280;27051;50.376;19.152;2023-11-18T09:16:12;98507.11;;;5.51;67.07
41306;BME280;27051;50.376;19.152;2023-11-18T09:18:43;98509.73;;;5.50;66.83
41306;BME280;27051;50.376;19.152;2023-11-18T09:21:11;98514.77;;;5.45;67.00
41306;BME280;27051;50.376;19.152;2023-11-18T09:24:00;98518.80;;;5.49;67.05
41306;BME280;27051;50.376;19.152;2023-11-18T09:29:19;98524.50;;;5.65;66.88
41306;BME280;27051;50.376;19.152;2023-11-18T09:31:47;98522.44;;;5.58;66.78
41306;BME280;27051;50.376;19.152;2023-11-18T09:34:15;98524.75;;;5.55;66.61
41306;BME280;27051;50.376;19.152;2023-11-18T09:39:30;98532.86;;;5.49;66.51
41306;BME280;27051;50.376;19.152;2023-11-18T09:42:00;98534.80;;;5.50;66.58
41306;BME280;27051;50.376;19.152;2023-11-18T09:44:29;98538.84;;;5.48;66.56
41306;BME280;27051;50.376;19.152;2023-11-18T09:47:08;98550.02;;;5.39;66.50
41306;BME280;27051;50.376;19.152;2023-11-18T09:49:44;98557.31;;;5.34;66.58
41306;BME280;27051;50.376;19.152;2023-11-18T09:52:21;98561.08;;;5.35;66.81
41306;BME280;27051;50.376;19.152;2023-11-18T09:54:50;98563.11;;;5.29;66.76
41306;BME280;27051;50.376;19.152;2023-11-18T09:57:39;98564.52;;;5.31;66.90
41306;BME280;27051;50.376;19.152;2023-11-18T10:00:28;98570.80;;;5.27;66.46
41306;BME280;27051;50.376;19.152;2023-11-18T10:03:03;98575.04;;;5.23;66.58
41306;BME280;27051;50.376;19.152;2023-11-18T10:05:53;98577.99;;;5.21;66.41
41306;BME280;27051;50.376;19.152;2023-11-18T10:08:21;98578.80;;;5.20;66.60
41306;BME280;27051;50.376;19.152;2023-11-18T10:10:49;98579.73;;;5.26;66.70
41306;BME280;27051;50.376;19.152;2023-11-18T10:13:16;98581.16;;;5.30;66.31
41306;BME280;27051;50.376;19.152;2023-11-18T10:16:03;98584.73;;;5.23;66.09
41306;BME280;27051;50.376;19.152;2023-11-18T10:18:41;98583.20;;;5.18;66.02
41306;BME280;27051;50.376;19.152;2023-11-18T10:21:08;98580.55;;;5.18;66.11
41306;BME280;27051;50.376;19.152;2023-11-18T10:23:35;98585.94;;;5.17;66.18
41306;BME280;27051;50.376;19.152;2023-11-18T10:26:13;98587.39;;;5.10;66.01
41306;BME280;27051;50.376;19.152;2023-11-18T10:28:55;98589.69;;;5.07;66.05
41306;BME280;27051;50.376;19.152;2023-11-18T10:31:32;98594.59;;;5.03;66.03
41306;BME280;27051;50.376;19.152;2023-11-18T10:34:00;98594.80;;;5.03;65.99
41306;BME280;27051;50.376;19.152;2023-11-18T10:36:28;98595.54;;;5.04;65.84
41306;BME280;27051;50.376;19.152;2023-11-18T10:38:55;98601.92;;;5.04;65.94
41306;BME280;27051;50.376;19.152;2023-11-18T10:41:25;98605.30;;;5.09;65.89
41306;BME280;27051;50.376;19.152;2023-11-18T10:44:25;98609.61;;;5.13;66.03
41306;BME280;27051;50.376;19.152;2023-11-18T10:46:53;98606.92;;;5.18;65.72
41306;BME280;27051;50.376;19.152;2023-11-18T10:49:29;98612.57;;;5.21;65.89
41306;BME280;27051;50.376;19.152;2023-11-18T10:51:56;98619.09;;;5.28;65.99
41306;BME280;27051;50.376;19.152;2023-11-18T10:54:33;98620.21;;;5.31;65.96
41306;BME280;27051;50.376;19.152;2023-11-18T10:57:09;98623.47;;;5.34;65.81
41306;BME280;27051;50.376;19.152;2023-11-18T11:00:00;98626.77;;;5.35;65.45
41306;BME280;27051;50.376;19.152;2023-11-18T11:02:33;98631.86;;;5.32;65.40
41306;BME280;27051;50.376;19.152;2023-11-18T11:05:01;98635.70;;;5.29;65.15
41306;BME280;27051;50.376;19.152;2023-11-18T11:07:29;98638.61;;;5.19;65.16
41306;BME280;27051;50.376;19.152;2023-11-18T11:10:22;98633.09;;;5.14;65.37
41306;BME280;27051;50.376;19.152;2023-11-18T11:12:50;98634.66;;;5.13;65.22
41306;BME280;27051;50.376;19.152;2023-11-18T11:16:07;98640.58;;;5.10;65.11
41306;BME280;27051;50.376;19.152;2023-11-18T11:18:39;98648.77;;;5.10;65.34
41306;BME280;27051;50.376;19.152;2023-11-18T11:21:14;98652.81;;;5.07;65.25
41306;BME280;27051;50.376;19.152;2023-11-18T11:23:50;98651.38;;;5.07;65.20
41306;BME280;27051;50.376;19.152;2023-11-18T11:26:23;98646.03;;;4.97;64.89
41306;BME280;27051;50.376;19.152;2023-11-18T11:31:35;98652.56;;;4.99;65.15
41306;BME280;27051;50.376;19.152;2023-11-18T11:34:19;98653.74;;;4.90;65.22
41306;BME280;27051;50.376;19.152;2023-11-18T11:36:56;98654.45;;;4.93;65.08
41306;BME280;27051;50.376;19.152;2023-11-18T11:39:27;98658.31;;;4.92;65.10
41306;BME280;27051;50.376;19.152;2023-11-18T11:41:54;98659.67;;;5.01;65.20
41306;BME280;27051;50.376;19.152;2023-11-18T11:44:22;98662.70;;;5.02;65.13
41306;BME280;27051;50.376;19.152;2023-11-18T11:47:00;98666.64;;;5.03;65.12
41306;BME280;27051;50.376;19.152;2023-11-18T11:49:45;98672.73;;;5.04;65.08
41306;BME280;27051;50.376;19.152;2023-11-18T11:55:26;98669.97;;;5.04;65.13
41306;BME280;27051;50.376;19.152;2023-11-18T11:57:56;98671.17;;;5.16;65.25
41306;BME280;27051;50.376;19.152;2023-11-18T12:00:26;98676.79;;;5.33;65.25
41306;BME280;27051;50.376;19.152;2023-11-18T12:05:49;98685.05;;;5.57;64.71
41306;BME280;27051;50.376;19.152;2023-11-18T12:08:45;98682.40;;;5.56;64.63
41306;BME280;27051;50.376;19.152;2023-11-18T12:11:17;98689.41;;;5.59;64.69
41306;BME280;27051;50.376;19.152;2023-11-18T12:14:20;98693.02;;;5.56;64.55
41306;BME280;27051;50.376;19.152;2023-11-18T12:17:03;98694.16;;;5.52;64.50
41306;BME280;27051;50.376;19.152;2023-11-18T12:19:43;98696.89;;;5.50;64.58
41306;BME280;27051;50.376;19.152;2023-11-18T12:22:11;98698.45;;;5.50;64.50
41306;BME280;27051;50.376;19.152;2023-11-18T12:27:50;98707.12;;;5.38;64.22
41306;BME280;27051;50.376;19.152;2023-11-18T12:30:43;98714.64;;;5.36;64.23
41306;BME280;27051;50.376;19.152;2023-11-18T12:33:11;98713.09;;;5.26;64.40
41306;BME280;27051;50.376;19.152;2023-11-18T12:36:44;98713.71;;;5.27;64.39
41306;BME280;27051;50.376;19.152;2023-11-18T12:47:38;98726.43;;;5.17;64.69
41306;BME280;27051;50.376;19.152;2023-11-18T12:50:10;98728.57;;;5.20;64.76
41306;BME280;27051;50.376;19.152;2023-11-18T12:52:38;98732.34;;;5.18;64.61
41306;BME280;27051;50.376;19.152;2023-11-18T12:55:08;98733.06;;;5.18;64.70
41306;BME280;27051;50.376;19.152;2023-11-18T12:57:46;98739.45;;;5.16;64.74
41306;BME280;27051;50.376;19.152;2023-11-18T13:00:17;98741.32;;;5.19;64.83
41306;BME280;27051;50.376;19.152;2023-11-18T13:03:04;98739.80;;;5.25;64.83
41306;BME280;27051;50.376;19.152;2023-11-18T13:05:32;98742.36;;;5.30;64.56
41306;BME280;27051;50.376;19.152;2023-11-18T13:08:20;98744.20;;;5.28;64.46
41306;BME280;27051;50.376;19.152;2023-11-18T13:10:46;98743.68;;;5.22;64.52
41306;BME280;27051;50.376;19.152;2023-11-18T13:13:16;98739.47;;;5.22;64.56
41306;BME280;27051;50.376;19.152;2023-11-18T13:15:50;98748.46;;;5.20;64.23
41306;BME280;27051;50.376;19.152;2023-11-18T13:18:27;98749.01;;;5.07;64.22
41306;BME280;27051;50.376;19.152;2023-11-18T13:21:16;98753.11;;;4.98;64.48
41306;BME280;27051;50.376;19.152;2023-11-18T13:23:48;98759.48;;;5.04;64.38
41306;BME280;27051;50.376;19.152;2023-11-18T13:26:19;98761.52;;;5.04;64.39
41306;BME280;27051;50.376;19.152;2023-11-18T13:28:49;98767.47;;;5.00;64.35
41306;BME280;27051;50.376;19.152;2023-11-18T13:31:17;98767.23;;;4.98;64.51
41306;BME280;27051;50.376;19.152;2023-11-18T13:33:47;98776.56;;;4.97;64.41
41306;BME280;27051;50.376;19.152;2023-11-18T13:36:22;98781.64;;;4.90;64.39
41306;BME280;27051;50.376;19.152;2023-11-18T13:38:49;98781.45;;;4.84;64.46
41306;BME280;27051;50.376;19.152;2023-11-18T13:41:29;98785.90;;;4.77;64.44
41306;BME280;27051;50.376;19.152;2023-11-18T13:43:56;98779.39;;;4.73;64.51
41306;BME280;27051;50.376;19.152;2023-11-18T13:46:24;98784.75;;;4.76;64.47
41306;BME280;27051;50.376;19.152;2023-11-18T13:49:19;98785.41;;;4.68;64.34
41306;BME280;27051;50.376;19.152;2023-11-18T13:52:08;98789.98;;;4.65;64.42
41306;BME280;27051;50.376;19.152;2023-11-18T13:54:35;98795.58;;;4.59;64.36
41306;BME280;27051;50.376;19.152;2023-11-18T13:57:03;98793.94;;;4.57;64.73
41306;BME280;27051;50.376;19.152;2023-11-18T14:02:30;98801.69;;;4.75;64.75
41306;BME280;27051;50.376;19.152;2023-11-18T14:05:03;98803.08;;;4.80;64.76
41306;BME280;27051;50.376;19.152;2023-11-18T14:07:30;98806.08;;;4.78;64.69
41306;BME280;27051;50.376;19.152;2023-11-18T14:09:57;98813.90;;;4.73;64.58
41306;BME280;27051;50.376;19.152;2023-11-18T14:12:29;98811.61;;;4.68;64.60
41306;BME280;27051;50.376;19.152;2023-11-18T14:14:59;98802.98;;;4.68;64.70
41306;BME280;27051;50.376;19.152;2023-11-18T14:17:29;98808.27;;;4.73;64.73
41306;BME280;27051;50.376;19.152;2023-11-18T14:19:56;98804.29;;;4.71;64.75
41306;BME280;27051;50.376;19.152;2023-11-18T14:22:23;98802.50;;;4.69;64.65
41306;BME280;27051;50.376;19.152;2023-11-18T14:25:02;98807.58;;;4.67;64.59
41306;BME280;27051;50.376;19.152;2023-11-18T14:27:29;98812.65;;;4.61;64.55
41306;BME280;27051;50.376;19.152;2023-11-18T14:30:01;98819.92;;;4.57;64.53
41306;BME280;27051;50.376;19.152;2023-11-18T14:32:37;98825.27;;;4.56;64.65
41306;BME280;27051;50.376;19.152;2023-11-18T14:35:04;98827.40;;;4.60;64.72
41306;BME280;27051;50.376;19.152;2023-11-18T14:37:41;98823.71;;;4.62;64.82
41306;BME280;27051;50.376;19.152;2023-11-18T14:40:24;98820.39;;;4.63;64.65
41306;BME280;27051;50.376;19.152;2023-11-18T14:42:55;98820.73;;;4.68;64.75
41306;BME280;27051;50.376;19.152;2023-11-18T14:45:31;98821.01;;;4.66;64.66
41306;BME280;27051;50.376;19.152;2023-11-18T14:48:00;98821.92;;;4.70;64.67
41306;BME280;27051;50.376;19.152;2023-11-18T14:50:39;98820.56;;;4.63;64.65
41306;BME280;27051;50.376;19.152;2023-11-18T14:56:04;98821.86;;;4.61;64.83
41306;BME280;27051;50.376;19.152;2023-11-18T14:58:50;98823.13;;;4.63;64.81
41306;BME280;27051;50.376;19.152;2023-11-18T15:01:23;98820.80;;;4.61;64.81
41306;BME280;27051;50.376;19.152;2023-11-18T15:04:02;98821.09;;;4.68;64.87
41306;BME280;27051;50.376;19.152;2023-11-18T15:07:01;98823.07;;;4.79;64.92
41306;BME280;27051;50.376;19.152;2023-11-18T15:09:27;98825.23;;;4.84;64.90
41306;BME280;27051;50.376;19.152;2023-11-18T15:12:36;98824.02;;;4.89;64.81
41306;BME280;27051;50.376;19.152;2023-11-18T15:15:15;98829.13;;;4.89;64.79
41306;BME280;27051;50.376;19.152;2023-11-18T15:17:42;98832.10;;;4.79;64.51
41306;BME280;27051;50.376;19.152;2023-11-18T15:20:38;98830.20;;;4.73;64.49
41306;BME280;27051;50.376;19.152;2023-11-18T15:23:27;98831.32;;;4.64;64.40
41306;BME280;27051;50.376;19.152;2023-11-18T15:26:03;98834.86;;;4.61;64.43
41306;BME280;27051;50.376;19.152;2023-11-18T15:28:34;98836.57;;;4.64;64.69
41306;BME280;27051;50.376;19.152;2023-11-18T15:31:01;98838.31;;;4.66;64.74
41306;BME280;27051;50.376;19.152;2023-11-18T15:36:41;98852.48;;;4.78;64.55
41306;BME280;27051;50.376;19.152;2023-11-18T15:39:14;98856.98;;;4.69;64.38
41306;BME280;27051;50.376;19.152;2023-11-18T15:41:56;98861.79;;;4.74;64.57